Winnfield, Louisiana
Current Conditions -  °F | °C
As of 9:55 PM on Sunday 23 Nov 2014 (Local Time) from KIER Reporting Station
Clear Clear  
Wind Chill: 63°   Ceiling: Unl
Heat Index: 63°   Visibility: 10mi
Dew Point: 59°   Wind: 7mph
Humidity: 87%   Direction: 210°SSW
Pressure: 29.62"   Gusts: NA
Location:  31.93°N, 92.64°W
Report Text: KIER 240355Z AUTO 21006KT 10SM CLR 17/15 A2962 RMK AO2 T01720150
Loading
Personal Weather Stations






























Interactive Weather Map New forecast layout! Learn more

10-Day Weather Forecast

Advertisements
Track Severe Weather on mobile